logo

United by the hobby
of model aircraft flying

Promoting safe
radio model flying

Sharing the experience
of RC flying

Dedicated to the sport of model aviation

Meeting
Venue

Third Monday Each Month
Crown Point Civic Center
101 S East Street
Crown Point, IN 46307

Read More

email:
[javascript protected email address]

View our events calendar

2021

Weather Conditions

Elev 730 ft    41.19°N  87.16°W

73.0 °F
350°
7 m/h
Wind Variable Wind from North

Current Conditions

Pressure 29.73 in
Visibility 10 miles
Clouds Mostly
Dew Point 69.1 °F
Humidity 87 %
Rainfall T1.7 in
 
METAR KVPZ 200140Z AUTO 35006KT 10SM TS FEW022 SCT029 BKN048 23/21 A2973 RMK AO2 LTG DSNT E AND SE RAB06E39 TSB0059 P0028 T02280206

Forecast

INFORMATION PROVIDED BY THE INDIANA STATE FORECAST - NATIONAL WEATHER SERVICE
Sunrise & Sunset
June 20, 2021
4:3 AM

4:34 PM
High 82 | Low 64°F
June 21, 2021
4:3 AM

4:34 PM
High | Low °F
 

our gallery

View All